createdAt,value
2022-11-15T00:00:24.247Z,101208.41
2022-11-15T00:05:49.223Z,101200.59
2022-11-15T00:11:15.803Z,101192.84
2022-11-15T00:16:40.482Z,101181.59
2022-11-15T00:22:05.042Z,101173.81
2022-11-15T00:27:31.330Z,101166.91
2022-11-15T00:32:56.185Z,101163.44
2022-11-15T00:38:20.815Z,101155.66
2022-11-15T00:43:47.339Z,101145.28
2022-11-15T00:49:12.590Z,101140.09
2022-11-15T00:54:37.217Z,101142.72
2022-11-15T01:00:03.256Z,101139.25
2022-11-15T01:05:28.150Z,101132.31
2022-11-15T01:10:52.582Z,101133.22
2022-11-15T01:16:20.772Z,101124.53
2022-11-15T01:21:45.691Z,101115.91
2022-11-15T01:27:11.293Z,101106.41
2022-11-15T01:32:37.380Z,101096.03
2022-11-15T01:38:02.119Z,101100.34
2022-11-15T01:43:30.004Z,101090.00
2022-11-15T01:49:00.080Z,101087.38
2022-11-15T01:54:26.440Z,101073.56
2022-11-15T01:59:51.603Z,101058.03
2022-11-15T02:05:18.031Z,101056.28
2022-11-15T02:10:42.866Z,101045.06
2022-11-15T02:16:24.726Z,101036.38
2022-11-15T02:22:06.778Z,101039.84
2022-11-15T02:28:13.301Z,101035.53
2022-11-15T02:33:52.224Z,101034.66
2022-11-15T02:39:25.914Z,101022.59
2022-11-15T02:44:52.055Z,101016.53
2022-11-15T02:50:23.404Z,101012.22
2022-11-15T02:55:53.057Z,101007.91
2022-11-15T03:01:34.922Z,101005.25
2022-11-15T03:07:10.831Z,101000.09
2022-11-15T03:12:42.243Z,100993.19
2022-11-15T03:18:15.219Z,100994.03
2022-11-15T03:23:42.684Z,100984.56
2022-11-15T03:29:12.277Z,100981.09
2022-11-15T03:34:44.405Z,100976.78
2022-11-15T03:40:13.136Z,100973.34
2022-11-15T03:45:44.111Z,100966.38
2022-11-15T03:51:09.220Z,100958.66
2022-11-15T03:56:35.513Z,100948.25
2022-11-15T04:02:00.411Z,100955.19
2022-11-15T04:07:25.153Z,100943.94
2022-11-15T04:12:51.872Z,100939.66
2022-11-15T04:18:16.646Z,100937.06
2022-11-15T04:23:58.614Z,100931.88
2022-11-15T04:29:37.198Z,100932.72
2022-11-15T04:35:02.125Z,100924.13
2022-11-15T04:40:28.663Z,100919.78
2022-11-15T04:45:55.367Z,100916.31
2022-11-15T04:51:21.929Z,100907.66
2022-11-15T04:56:46.639Z,100913.72
2022-11-15T05:02:13.084Z,100903.34
2022-11-15T05:07:37.847Z,100901.63
2022-11-15T05:13:02.737Z,100898.16
2022-11-15T05:18:28.788Z,100899.88
2022-11-15T05:23:53.546Z,100887.78
2022-11-15T05:29:18.190Z,100886.06
2022-11-15T05:34:44.191Z,100882.63
2022-11-15T05:40:11.042Z,100891.25
2022-11-15T05:45:37.085Z,100891.28
2022-11-15T05:51:04.305Z,100880.91
2022-11-15T05:56:29.511Z,100873.13
2022-11-15T06:01:54.220Z,100875.72
2022-11-15T06:07:21.174Z,100880.94
2022-11-15T06:12:46.440Z,100871.41
2022-11-15T06:18:11.449Z,100882.63
2022-11-15T06:23:38.495Z,100893.00
2022-11-15T06:29:04.883Z,100885.25
2022-11-15T06:34:29.894Z,100885.25
2022-11-15T06:39:55.853Z,100892.16
2022-11-15T06:45:20.501Z,100887.81
2022-11-15T06:50:45.304Z,100891.31
2022-11-15T06:56:11.871Z,100896.47
2022-11-15T07:01:36.697Z,100890.44
2022-11-15T07:07:01.771Z,100884.38
2022-11-15T07:12:28.161Z,100893.88
2022-11-15T07:17:52.995Z,100909.44
2022-11-15T07:23:17.661Z,100907.72
2022-11-15T07:28:44.262Z,100896.47
2022-11-15T07:34:09.799Z,100894.75
2022-11-15T07:39:34.359Z,100886.94
2022-11-15T07:45:00.418Z,100893.00
2022-11-15T07:50:25.659Z,100879.19
2022-11-15T07:55:50.381Z,100876.59
2022-11-15T08:01:16.344Z,100869.69
2022-11-15T08:06:41.549Z,100867.94
2022-11-15T08:12:07.307Z,100850.69
2022-11-15T08:17:35.248Z,100848.94
2022-11-15T08:23:00.656Z,100832.53
2022-11-15T08:28:25.389Z,100835.13
2022-11-15T08:33:51.678Z,100829.06
2022-11-15T08:39:16.887Z,100846.31
2022-11-15T08:44:41.750Z,100837.72
2022-11-15T08:50:09.515Z,100840.31
2022-11-15T08:55:34.457Z,100835.97
2022-11-15T09:00:59.181Z,100831.63
2022-11-15T09:06:25.279Z,100823.88
2022-11-15T09:11:50.308Z,100831.66
2022-11-15T09:17:15.385Z,100830.78
2022-11-15T09:22:43.688Z,100826.44
2022-11-15T09:28:10.465Z,100814.34
2022-11-15T09:33:35.597Z,100816.94
2022-11-15T09:39:02.720Z,100795.34
2022-11-15T09:44:52.448Z,100787.53
2022-11-15T09:50:22.241Z,100783.22
2022-11-15T09:55:43.603Z,100770.22
2022-11-15T10:00:54.174Z,100768.56
2022-11-15T10:06:04.568Z,100765.03
2022-11-15T10:17:24.334Z,100756.41
2022-11-15T10:22:37.799Z,100752.94
2022-11-15T10:27:48.207Z,100758.13
2022-11-15T10:32:54.505Z,100765.03
2022-11-15T10:38:09.925Z,100761.53
2022-11-15T10:43:22.147Z,100748.59
2022-11-15T10:48:29.115Z,100756.38
2022-11-15T10:53:42.071Z,100751.19
2022-11-15T10:58:56.955Z,100739.09
2022-11-15T11:04:06.028Z,100742.53
2022-11-15T11:09:23.115Z,100733.84
2022-11-15T11:14:34.413Z,100729.53
2022-11-15T11:20:04.877Z,100726.09
2022-11-15T11:25:30.812Z,100714.00
2022-11-15T11:30:53.039Z,100710.56
2022-11-15T11:36:14.702Z,100711.41
2022-11-15T11:41:41.781Z,100695.88
2022-11-15T11:47:02.241Z,100687.22
2022-11-15T11:52:16.240Z,100686.34
2022-11-15T11:57:42.008Z,100674.22
2022-11-15T12:03:03.646Z,100676.81
2022-11-15T12:08:28.582Z,100681.19
2022-11-15T12:13:37.988Z,100670.03
2022-11-15T12:18:51.646Z,100666.63
2022-11-15T12:24:05.714Z,100657.94
2022-11-15T12:29:22.239Z,100651.81
2022-11-15T12:34:48.340Z,100641.41
2022-11-15T12:40:39.195Z,100639.72
2022-11-15T12:45:47.533Z,100628.59
2022-11-15T12:51:00.163Z,100633.81
2022-11-15T12:56:26.246Z,100634.59
2022-11-15T13:02:02.722Z,100618.97
2022-11-15T13:07:30.827Z,100618.03
2022-11-15T13:13:01.590Z,100617.22
2022-11-15T13:18:39.178Z,100628.53
2022-11-15T13:23:53.826Z,100615.69
2022-11-15T13:29:00.763Z,100625.22
2022-11-15T13:34:50.526Z,100622.69
2022-11-15T13:39:56.284Z,100602.81
2022-11-15T13:45:05.370Z,100601.94
2022-11-15T13:50:15.183Z,100612.25
2022-11-15T13:55:26.231Z,100599.41
2022-11-15T14:00:41.448Z,100595.94
2022-11-15T14:06:05.100Z,100590.78
2022-11-15T14:11:23.204Z,100575.25
2022-11-15T14:16:38.262Z,100579.59
2022-11-15T14:22:17.638Z,100577.03
2022-11-15T14:27:28.606Z,100576.16
2022-11-15T14:32:47.101Z,100591.78
2022-11-15T14:37:53.773Z,100589.16
2022-11-15T14:43:01.700Z,100584.84
2022-11-15T14:48:08.405Z,100571.06
2022-11-15T14:53:17.541Z,100575.34
2022-11-15T14:58:25.167Z,100590.00
2022-11-15T15:03:31.444Z,100586.50
2022-11-15T15:08:38.416Z,100582.19
2022-11-15T15:13:46.247Z,100577.88
2022-11-15T15:18:52.839Z,100569.25
2022-11-15T15:23:59.220Z,100561.47
2022-11-15T15:29:10.149Z,100568.41
2022-11-15T15:34:17.059Z,100556.34
2022-11-15T15:39:23.695Z,100558.06
2022-11-15T15:44:31.389Z,100553.75
2022-11-15T15:49:37.618Z,100553.72
2022-11-15T15:54:44.828Z,100545.16
2022-11-15T15:59:52.568Z,100555.47
2022-11-15T16:05:00.564Z,100543.38
2022-11-15T16:10:23.994Z,100546.81
2022-11-15T16:15:34.363Z,100538.22
2022-11-15T16:20:43.976Z,100534.78
2022-11-15T16:25:53.955Z,100533.97
2022-11-15T16:31:07.261Z,100531.38
2022-11-15T16:36:28.645Z,100538.28
2022-11-15T16:41:36.356Z,100545.16
2022-11-15T16:46:48.066Z,100543.44
2022-11-15T16:51:54.544Z,100554.69
2022-11-15T16:57:01.321Z,100538.34
2022-11-15T17:02:14.235Z,100536.66
2022-11-15T17:07:21.655Z,100540.16
2022-11-15T17:12:29.709Z,100538.47
2022-11-15T17:17:40.295Z,100532.44
2022-11-15T17:22:47.645Z,100544.50
2022-11-15T17:27:55.593Z,100530.69
2022-11-15T17:33:04.219Z,100547.09
2022-11-15T17:38:11.277Z,100541.88
2022-11-15T17:43:18.083Z,100541.03
2022-11-15T17:48:27.364Z,100540.16
2022-11-15T17:53:37.139Z,100536.75
2022-11-15T17:58:44.577Z,100541.06
2022-11-15T18:03:53.742Z,100529.03
2022-11-15T18:09:00.616Z,100531.66
2022-11-15T18:14:17.144Z,100524.78
2022-11-15T18:19:26.138Z,100520.47
2022-11-15T18:24:34.380Z,100521.31
2022-11-15T18:29:41.383Z,100509.22
2022-11-15T18:34:49.416Z,100512.69
2022-11-15T18:39:56.277Z,100511.81
2022-11-15T18:45:03.808Z,100510.06
2022-11-15T18:50:14.547Z,100510.94
2022-11-15T18:55:21.784Z,100507.50
2022-11-15T19:00:30.036Z,100508.38
2022-11-15T19:05:38.932Z,100519.59
2022-11-15T19:10:45.845Z,100511.81
2022-11-15T19:16:00.843Z,100512.66
2022-11-15T19:21:14.883Z,100520.44
2022-11-15T19:26:25.464Z,100516.13
2022-11-15T19:31:33.496Z,100499.78
2022-11-15T19:36:43.968Z,100505.81
2022-11-15T19:41:51.761Z,100504.94
2022-11-15T19:46:59.973Z,100506.66
2022-11-15T19:52:08.989Z,100501.50
2022-11-15T19:57:15.606Z,100501.47
2022-11-15T20:02:22.672Z,100495.44
2022-11-15T20:07:31.780Z,100492.88
2022-11-15T20:12:42.577Z,100484.28
2022-11-15T20:17:49.560Z,100479.97
2022-11-15T20:23:01.124Z,100488.59
2022-11-15T20:28:19.712Z,100485.16
2022-11-15T20:33:27.552Z,100495.53
2022-11-15T20:38:36.449Z,100497.28
2022-11-15T20:43:43.987Z,100486.06
2022-11-15T20:48:51.055Z,100485.22
2022-11-15T20:54:00.333Z,100491.28
2022-11-15T20:59:07.739Z,100478.31
2022-11-15T21:04:14.643Z,100472.31
2022-11-15T21:09:40.074Z,100468.84
2022-11-15T21:14:49.191Z,100461.94
2022-11-15T21:19:56.594Z,100459.34
2022-11-15T21:25:04.114Z,100458.47
2022-11-15T21:30:12.444Z,100459.31
2022-11-15T21:35:18.756Z,100459.31
2022-11-15T21:40:26.794Z,100455.00
2022-11-15T21:45:33.290Z,100457.56
2022-11-15T21:50:39.844Z,100453.25
2022-11-15T21:55:47.620Z,100445.50
2022-11-15T22:01:13.563Z,100444.66
2022-11-15T22:06:20.146Z,100423.13
2022-11-15T22:11:27.851Z,100425.66
2022-11-15T22:16:34.547Z,100417.06
2022-11-15T22:21:41.209Z,100411.88
2022-11-15T22:26:48.953Z,100398.09
2022-11-15T22:31:55.116Z,100401.53
2022-11-15T22:42:29.528Z,100385.19
2022-11-15T22:47:35.752Z,100384.31
2022-11-15T22:52:42.255Z,100377.38
2022-11-15T22:57:49.980Z,100376.56
2022-11-15T23:02:56.048Z,100367.06
2022-11-15T23:08:02.163Z,100382.59
2022-11-15T23:13:17.796Z,100386.88
2022-11-15T23:18:23.826Z,100378.25
2022-11-15T23:23:30.015Z,100371.31
2022-11-15T23:28:37.994Z,100362.72
2022-11-15T23:33:59.218Z,100354.09
2022-11-15T23:39:05.790Z,100344.63
2022-11-15T23:44:13.659Z,100342.88
2022-11-15T23:49:20.289Z,100345.44
2022-11-15T23:54:27.064Z,100351.47
2022-11-15T23:59:35.865Z,100355.75
